This is the latest recevied weather packets stored in our database for station/object I3RKE-10. If no packets are shown the sender has not sent any weather packets the latest 10 day(s).
| Time | Temp. | Humidity | Pressure | Rain* | Wind** | Luminosity | Snow |
|---|---|---|---|---|---|---|---|
| 1777615043 | 11.11° C | 44% | 1021.6 hPa | - | - | - | - |
| 1777614961 | 11.11° C | 44% | 1021.6 hPa | - | - | - | - |
| 1777614061 | 10° C | 47% | 1021.5 hPa | - | - | - | - |
| 1777613161 | 9.44° C | 46% | 1021.4 hPa | - | - | - | - |
| 1777612261 | 8.89° C | 48% | 1021.3 hPa | - | - | - | - |
| 1777611361 | 7.78° C | 50% | 1021.4 hPa | - | - | - | - |
| 1777610461 | 7.78° C | 51% | 1021.3 hPa | - | - | - | - |
| 1777609560 | 7.78° C | 52% | 1021.3 hPa | - | - | - | - |
| 1777608660 | 7.22° C | 52% | 1021.2 hPa | - | - | - | - |
| 1777607760 | 7.78° C | 51% | 1021.1 hPa | - | - | - | - |
| 1777606860 | 7.78° C | 50% | 1021.1 hPa | - | - | - | - |
| 1777605960 | 7.78° C | 51% | 1021.1 hPa | - | - | - | - |
| 1777605060 | 7.78° C | 51% | 1021.2 hPa | - | - | - | - |
| 1777604160 | 7.78° C | 53% | 1021.2 hPa | - | - | - | - |
| 1777603260 | 7.78° C | 53% | 1021.2 hPa | - | - | - | - |
| 1777602360 | 7.78° C | 54% | 1021.3 hPa | - | - | - | - |
| 1777601460 | 7.78° C | 54% | 1021.4 hPa | - | - | - | - |
| 1777600559 | 7.22° C | 57% | 1021.5 hPa | - | - | - | - |
| 1777599660 | 7.78° C | 55% | 1021.4 hPa | - | - | - | - |
| 1777598759 | 7.78° C | 56% | 1021.5 hPa | - | - | - | - |
| 1777597859 | 7.78° C | 57% | 1021.4 hPa | - | - | - | - |
| 1777596959 | 8.33° C | 56% | 1021.4 hPa | - | - | - | - |
| 1777596059 | 8.33° C | 56% | 1021.3 hPa | - | - | - | - |
| 1777595159 | 8.33° C | 56% | 1021.4 hPa | - | - | - | - |
| 1777594259 | 8.33° C | 56% | 1021.5 hPa | - | - | - | - |
* Rain since midnight (hover to see other rain measurements)
** Current wind speed in m/s (hover to see current wind gust speed)